Time;durP1;ratioP1;P1;durP2;ratioP2;P2;SDS_P1;SDS_P2;PMS_P1;PMS_P2;Temp;Humidity;BMP_temperature;BMP_pressure;BME280_temperature;BME280_humidity;BME280_pressure;Samples;Min_cycle;Max_cycle;Signal;HPM_P1;HPM_P2
2022/07/08 00:01:21;;;;;;;;;4.00;2.00;;;;;20.02;47.66;102666.16;4859028;29;48546;-65
2022/07/08 00:03:47;;;;;;;;;3.25;3.25;;;;;19.98;47.91;102657.28;4854840;29;45378;-65
2022/07/08 00:06:12;;;;;;;;;3.50;3.00;;;;;19.93;47.64;102656.59;4857620;29;47302;-66
2022/07/08 00:08:37;;;;;;;;;3.00;3.00;;;;;19.88;48.01;102660.41;4850268;29;45435;-66
2022/07/08 00:11:03;;;;;;;;;3.00;3.00;;;;;19.86;48.07;102662.31;4847881;29;45347;-66
2022/07/08 00:13:28;;;;;;;;;2.25;2.25;;;;;19.85;48.21;102653.31;4850788;29;45446;-66
2022/07/08 00:15:54;;;;;;;;;5.00;3.50;;;;;19.87;47.82;102662.25;4859596;29;45487;-66
2022/07/08 00:18:19;;;;;;;;;5.50;3.00;;;;;19.84;47.99;102658.78;4847450;29;45532;-65
2022/07/08 00:20:44;;;;;;;;;7.00;3.00;;;;;19.80;48.42;102658.91;4850292;29;45733;-65
2022/07/08 00:23:10;;;;;;;;;3.50;3.00;;;;;19.76;48.17;102667.22;4865036;29;45289;-66
2022/07/08 00:25:35;;;;;;;;;2.00;2.00;;;;;19.80;48.59;102668.88;4858706;29;45310;-66
2022/07/08 00:28:01;;;;;;;;;1.50;1.50;;;;;19.80;48.34;102668.88;4847526;29;45329;-65
2022/07/08 00:30:26;;;;;;;;;3.00;3.00;;;;;19.76;48.35;102653.66;4847543;29;46274;-66
2022/07/08 00:32:51;;;;;;;;;5.00;4.00;;;;;19.75;48.88;102651.94;4847316;29;45255;-65
2022/07/08 00:35:17;;;;;;;;;2.00;2.00;;;;;19.76;48.29;102653.66;4856355;29;45169;-66
2022/07/08 00:37:42;;;;;;;;;2.25;2.25;;;;;19.77;48.73;102653.63;4847471;29;45142;-65
2022/07/08 00:40:08;;;;;;;;;2.00;1.50;;;;;19.74;48.39;102652.81;4861228;29;45394;-66
2022/07/08 00:42:33;;;;;;;;;1.00;1.00;;;;;19.73;48.79;102645.63;4864539;29;45214;-65
2022/07/08 00:44:59;;;;;;;;;3.25;2.25;;;;;19.75;48.39;102649.22;4858144;29;46009;-66
2022/07/08 00:47:24;;;;;;;;;2.25;2.00;;;;;19.75;48.53;102647.38;4861753;29;49178;-65
2022/07/08 00:49:50;;;;;;;;;2.00;2.00;;;;;19.77;48.52;102655.44;4867198;29;45441;-65
2022/07/08 00:52:16;;;;;;;;;4.25;2.00;;;;;19.72;48.56;102652.88;4865287;29;45370;-66
2022/07/08 00:54:42;;;;;;;;;2.50;2.00;;;;;19.64;48.52;102649.59;4855655;29;45410;-65
2022/07/08 00:57:08;;;;;;;;;3.00;2.75;;;;;19.63;48.31;102662.28;4847022;29;45389;-66
2022/07/08 00:59:33;;;;;;;;;3.75;2.00;;;;;19.66;48.36;102658.53;4847237;29;46022;-65
2022/07/08 01:01:59;;;;;;;;;4.50;4.00;;;;;19.68;48.18;102659.38;4846832;29;45441;-65
2022/07/08 01:04:24;;;;;;;;;1.00;1.00;;;;;19.62;48.14;102665.91;4847537;29;45303;-65
2022/07/08 01:06:50;;;;;;;;;3.50;3.50;;;;;19.58;48.38;102669.72;4846951;29;45580;-66
2022/07/08 01:09:15;;;;;;;;;4.50;2.75;;;;;19.61;48.34;102680.44;4847165;29;45357;-66
2022/07/08 01:11:47;;;;;;;;;2.50;1.00;;;;;19.57;48.53;102678.75;4846797;29;45236;-66
2022/07/08 01:14:14;;;;;;;;;2.00;2.00;;;;;19.61;48.56;102676.81;4855138;29;45397;-65
2022/07/08 01:16:40;;;;;;;;;3.75;3.75;;;;;19.56;48.14;102677.03;4864951;29;45375;-65
2022/07/08 01:19:05;;;;;;;;;2.00;1.75;;;;;19.52;48.75;102682.59;4858136;29;46172;-66
2022/07/08 01:21:31;;;;;;;;;2.75;2.75;;;;;19.54;48.58;102687.00;4851876;29;45451;-66
2022/07/08 01:23:56;;;;;;;;;3.50;2.75;;;;;19.49;48.62;102688.16;4852562;29;45409;-66
2022/07/08 01:26:21;;;;;;;;;2.00;2.00;;;;;19.51;48.58;102702.50;4851557;29;45321;-65
2022/07/08 01:28:47;;;;;;;;;2.00;2.00;;;;;19.44;48.37;102708.19;4846859;29;45327;-65
2022/07/08 01:31:12;;;;;;;;;4.00;2.50;;;;;19.34;48.45;102698.63;4846608;29;45352;-65
2022/07/08 01:33:38;;;;;;;;;2.00;2.00;;;;;19.30;48.85;102709.66;4854203;29;45430;-65
2022/07/08 01:36:04;;;;;;;;;3.00;1.75;;;;;19.21;49.14;102709.06;4860387;29;45556;-65
2022/07/08 01:38:29;;;;;;;;;3.50;3.00;;;;;19.16;49.16;102702.94;4865395;29;45551;-65
2022/07/08 01:40:54;;;;;;;;;1.75;1.75;;;;;19.16;49.08;102710.13;4862803;29;45425;-65
2022/07/08 01:43:20;;;;;;;;;3.00;1.50;;;;;19.15;48.96;102706.56;4865932;29;45390;-65
2022/07/08 01:45:46;;;;;;;;;2.00;2.00;;;;;19.06;49.12;102696.97;4851167;29;45396;-65
2022/07/08 01:48:11;;;;;;;;;2.00;2.00;;;;;18.96;49.16;102702.75;4863307;29;45247;-65
2022/07/08 01:50:37;;;;;;;;;1.50;1.00;;;;;18.93;49.82;102708.28;4858489;29;45452;-66
2022/07/08 01:53:02;;;;;;;;;5.00;3.00;;;;;18.77;49.33;102691.69;4857689;29;45401;-65
2022/07/08 01:55:27;;;;;;;;;1.00;1.00;;;;;18.86;49.54;102700.41;4856066;29;45358;-66
2022/07/08 01:57:53;;;;;;;;;3.75;2.00;;;;;18.86;49.70;102708.53;4846500;29;46612;-65
2022/07/08 02:00:19;;;;;;;;;4.00;2.50;;;;;18.86;49.84;102710.31;4855131;29;45388;-65
2022/07/08 02:02:45;;;;;;;;;2.75;1.00;;;;;18.86;49.72;102703.13;4857977;29;45958;-65
2022/07/08 02:05:11;;;;;;;;;5.00;2.25;;;;;18.85;49.81;102700.47;4848182;29;45403;-65
2022/07/08 02:07:37;;;;;;;;;1.50;1.25;;;;;18.82;49.34;102700.53;4849742;29;46190;-65
2022/07/08 02:10:03;;;;;;;;;1.75;1.75;;;;;18.84;49.60;102710.41;4851128;29;45224;-65
2022/07/08 02:12:28;;;;;;;;;4.25;3.00;;;;;18.79;49.69;102701.50;4849625;29;45241;-65
2022/07/08 02:15:01;;;;;;;;;3.75;2.75;;;;;18.79;49.54;102712.34;4855736;29;45234;-66
2022/07/08 02:17:29;;;;;;;;;3.25;2.00;;;;;18.68;50.11;102711.84;4868104;29;46388;-66
2022/07/08 02:19:54;;;;;;;;;4.00;3.00;;;;;18.61;49.80;102707.56;4855893;29;45563;-66
2022/07/08 02:22:20;;;;;;;;;4.00;3.00;;;;;18.59;50.08;102717.56;4865518;29;45418;-65
2022/07/08 02:24:47;;;;;;;;;1.25;1.25;;;;;18.48;50.23;102708.00;4853983;29;45369;-66
2022/07/08 02:27:13;;;;;;;;;5.00;2.00;;;;;18.52;50.33;102714.19;4849105;29;46194;-66
2022/07/08 02:29:38;;;;;;;;;3.25;2.00;;;;;18.55;50.21;102713.22;4849200;29;45394;-65
2022/07/08 02:32:04;;;;;;;;;5.00;2.00;;;;;18.44;50.34;102709.06;4866777;29;45371;-65
2022/07/08 02:34:29;;;;;;;;;1.50;1.25;;;;;18.40;50.34;102703.81;4859849;29;45239;-66
2022/07/08 02:36:55;;;;;;;;;1.00;1.00;;;;;18.39;50.39;102696.63;4849157;29;46050;-66
2022/07/08 02:39:21;;;;;;;;;3.00;2.25;;;;;18.38;50.37;102692.16;4856837;29;45442;-66
2022/07/08 02:41:47;;;;;;;;;2.25;1.00;;;;;18.42;50.42;102691.13;4863100;29;45417;-66
2022/07/08 02:44:12;;;;;;;;;2.50;2.25;;;;;18.41;50.75;102690.25;4868042;29;45318;-65
2022/07/08 02:46:38;;;;;;;;;2.00;2.00;;;;;18.47;50.26;102692.72;4849847;29;46906;-65
2022/07/08 02:49:03;;;;;;;;;3.00;2.00;;;;;18.50;50.17;102694.44;4866245;29;45456;-65
2022/07/08 02:51:29;;;;;;;;;2.00;2.00;;;;;18.50;50.52;102700.72;4854655;29;45587;-65
2022/07/08 02:53:55;;;;;;;;;2.75;1.75;;;;;18.47;50.23;102703.53;4863594;29;45596;-66
2022/07/08 02:56:20;;;;;;;;;1.25;1.25;;;;;18.45;50.58;102693.72;4867499;29;45975;-66
2022/07/08 02:58:45;;;;;;;;;1.75;1.75;;;;;18.43;50.56;102685.66;4867402;29;45289;-65
2022/07/08 03:01:11;;;;;;;;;3.00;3.00;;;;;18.42;50.65;102683.88;4857771;29;45308;-65
2022/07/08 03:03:36;;;;;;;;;4.00;3.25;;;;;18.43;50.38;102691.06;4863637;29;45428;-65
2022/07/08 03:06:02;;;;;;;;;4.75;2.75;;;;;18.46;50.23;102707.19;4848518;29;50416;-65
2022/07/08 03:08:28;;;;;;;;;2.00;1.25;;;;;18.36;50.55;102703.03;4848755;29;45533;-65
2022/07/08 03:10:53;;;;;;;;;2.25;1.75;;;;;18.40;50.60;102703.81;4857992;29;45555;-65
2022/07/08 03:13:19;;;;;;;;;3.00;1.00;;;;;18.38;50.95;102703.00;4856614;29;45451;-66
2022/07/08 03:15:44;;;;;;;;;3.00;3.00;;;;;18.39;50.86;102711.00;4854908;29;46103;-66
2022/07/08 03:18:09;;;;;;;;;2.00;2.00;;;;;18.39;50.75;102702.91;4867043;29;45356;-65
2022/07/08 03:20:35;;;;;;;;;2.75;2.00;;;;;18.46;50.78;102711.69;4870650;29;45478;-66
2022/07/08 03:23:00;;;;;;;;;2.00;2.00;;;;;18.44;50.78;102711.78;4848559;29;45395;-65
2022/07/08 03:25:26;;;;;;;;;2.50;2.00;;;;;18.48;50.80;102712.53;4848784;29;46114;-65
2022/07/08 03:27:51;;;;;;;;;2.00;1.25;;;;;18.49;50.65;102717.91;4848439;29;45276;-65
2022/07/08 03:30:17;;;;;;;;;3.75;2.25;;;;;18.48;50.62;102718.81;4853520;29;45403;-65
2022/07/08 03:32:42;;;;;;;;;3.25;1.75;;;;;18.45;50.27;102712.66;4853982;29;48425;-65
2022/07/08 03:35:08;;;;;;;;;5.50;4.00;;;;;18.46;50.55;102718.00;4853524;29;45300;-66
2022/07/08 03:37:34;;;;;;;;;2.25;2.25;;;;;18.47;50.46;102725.16;4848398;29;45252;-65
2022/07/08 03:42:44;;;;;;;;;1.50;1.50;;;;;18.44;50.72;102741.53;4866067;29;45335;-65
2022/07/08 03:45:09;;;;;;;;;2.00;2.00;;;;;18.37;51.06;102729.13;4875461;29;46324;-65
2022/07/08 03:47:35;;;;;;;;;3.75;1.75;;;;;18.30;50.88;102732.97;4857770;29;45150;-65
2022/07/08 03:50:00;;;;;;;;;2.75;2.75;;;;;18.27;51.06;102735.78;4861392;29;45479;-65
2022/07/08 03:52:26;;;;;;;;;3.00;1.75;;;;;18.24;51.00;102730.47;4850920;29;45701;-65
2022/07/08 03:54:51;;;;;;;;;3.00;1.00;;;;;18.20;50.90;102739.63;4847981;29;45441;-65
2022/07/08 03:57:16;;;;;;;;;3.00;2.25;;;;;18.12;51.17;102729.94;4847814;29;45300;-66
2022/07/08 03:59:42;;;;;;;;;3.00;2.50;;;;;18.15;50.95;102734.34;4848396;29;45297;-66
2022/07/08 04:02:07;;;;;;;;;1.75;0.75;;;;;18.17;50.94;102739.72;4877804;29;47589;-65
2022/07/08 04:04:32;;;;;;;;;3.50;3.50;;;;;18.16;51.38;102730.75;4856243;29;46627;-65
2022/07/08 04:06:58;;;;;;;;;2.50;2.50;;;;;18.19;50.91;102743.25;4847768;29;45383;-66
2022/07/08 04:09:23;;;;;;;;;2.00;2.00;;;;;18.17;50.86;102737.00;4856568;29;49720;-65
2022/07/08 04:11:48;;;;;;;;;2.75;2.75;;;;;18.17;51.23;102740.59;4860394;29;48213;-65
2022/07/08 04:14:13;;;;;;;;;2.25;2.25;;;;;18.13;51.18;102739.81;4857092;29;52013;-66
2022/07/08 04:16:39;;;;;;;;;3.75;2.75;;;;;18.12;51.43;102740.72;4861123;29;45392;-65
2022/07/08 04:19:04;;;;;;;;;3.75;2.00;;;;;18.17;51.64;102737.88;4859188;29;45383;-66
2022/07/08 04:21:29;;;;;;;;;5.00;3.75;;;;;18.14;51.65;102730.78;4841465;29;45501;-65
2022/07/08 04:23:58;;;;;;;;;2.75;2.75;;;;;18.13;51.56;102734.41;4847789;29;45382;-66
2022/07/08 04:26:28;;;;;;;;;4.25;3.25;;;;;18.12;51.12;102754.25;4858302;29;45246;-66
2022/07/08 04:28:53;;;;;;;;;3.00;2.50;;;;;18.04;51.47;102734.72;4858082;29;45403;-65
2022/07/08 04:31:18;;;;;;;;;4.50;3.00;;;;;18.07;51.22;102741.81;4847409;29;45422;-66
2022/07/08 04:33:44;;;;;;;;;3.75;2.50;;;;;18.12;51.59;102748.84;4848563;29;45495;-66
2022/07/08 04:36:09;;;;;;;;;2.50;2.00;;;;;18.06;51.54;102749.06;4853899;29;53772;-66
2022/07/08 04:38:34;;;;;;;;;1.75;1.75;;;;;18.01;51.71;102745.63;4852275;29;45245;-66
2022/07/08 04:41:00;;;;;;;;;2.75;2.75;;;;;18.00;51.62;102753.78;4863869;29;45385;-65
2022/07/08 04:43:25;;;;;;;;;2.25;2.00;;;;;17.96;51.72;102761.97;4870432;29;50996;-66
2022/07/08 04:45:51;;;;;;;;;4.00;3.00;;;;;17.94;51.88;102747.63;4854882;29;45838;-65
2022/07/08 04:48:16;;;;;;;;;4.25;2.50;;;;;17.94;51.59;102757.53;4864686;29;45432;-66
2022/07/08 04:50:41;;;;;;;;;3.25;3.25;;;;;17.91;52.02;102752.25;4865383;29;45217;-66
2022/07/08 04:53:06;;;;;;;;;1.50;1.25;;;;;17.92;51.77;102756.72;4847098;29;46182;-65
2022/07/08 04:55:32;;;;;;;;;5.75;2.75;;;;;17.92;51.61;102767.50;4849714;29;45325;-65
2022/07/08 04:58:02;;;;;;;;;4.50;2.75;;;;;17.90;51.92;102764.84;4857632;29;45145;-66
2022/07/08 05:00:29;;;;;;;;;2.00;2.00;;;;;17.86;51.54;102767.66;4847274;29;46709;-65
2022/07/08 05:02:54;;;;;;;;;2.75;2.75;;;;;17.86;51.53;102771.28;4846874;29;46457;-65
2022/07/08 05:05:21;;;;;;;;;4.00;3.00;;;;;17.83;51.38;102768.66;4861239;29;45228;-65
2022/07/08 05:07:50;;;;;;;;;7.50;3.25;;;;;17.81;51.75;102764.22;4865867;29;45442;-66
2022/07/08 05:10:17;;;;;;;;;4.00;3.75;;;;;17.81;51.92;102765.13;4864981;29;45672;-65
2022/07/08 05:12:43;;;;;;;;;2.50;2.50;;;;;17.88;52.47;102779.38;4864639;29;45606;-66
2022/07/08 05:15:09;;;;;;;;;3.25;1.50;;;;;17.87;52.41;102774.88;4849744;29;45340;-66
2022/07/08 05:17:34;;;;;;;;;4.75;3.75;;;;;17.88;52.25;102787.47;4865657;29;45412;-65
2022/07/08 05:20:00;;;;;;;;;3.25;2.00;;;;;17.90;51.76;102791.00;4851021;29;45348;-65
2022/07/08 05:22:25;;;;;;;;;2.00;2.00;;;;;17.87;51.79;102785.69;4846972;29;45427;-65
2022/07/08 05:24:50;;;;;;;;;4.75;4.00;;;;;17.87;52.45;102791.97;4846739;29;45264;-65
2022/07/08 05:27:15;;;;;;;;;2.00;2.00;;;;;17.83;52.38;102776.75;4862820;29;45313;-66
2022/07/08 05:29:41;;;;;;;;;4.00;2.50;;;;;17.85;51.94;102776.72;4850985;29;45373;-65
2022/07/08 05:32:07;;;;;;;;;5.00;4.00;;;;;17.88;51.99;102788.34;4868422;29;45392;-65
2022/07/08 05:34:33;;;;;;;;;6.00;5.00;;;;;17.87;52.55;102786.56;4860015;29;45303;-65
2022/07/08 05:37:00;;;;;;;;;4.00;3.00;;;;;17.92;52.46;102783.72;4861240;29;45477;-66
2022/07/08 05:39:26;;;;;;;;;3.50;3.00;;;;;17.95;52.49;102789.91;4865354;29;45383;-65
2022/07/08 05:41:54;;;;;;;;;2.00;2.00;;;;;17.94;52.03;102787.25;4866763;29;45933;-65
2022/07/08 05:44:23;;;;;;;;;4.00;3.00;;;;;17.99;51.83;102789.81;4870033;29;45400;-65
2022/07/08 05:46:48;;;;;;;;;6.75;4.00;;;;;18.00;52.18;102791.59;4860396;29;47168;-65
2022/07/08 05:49:13;;;;;;;;;5.75;4.75;;;;;18.00;52.69;102788.91;4863185;29;51642;-65
2022/07/08 05:51:39;;;;;;;;;4.75;3.75;;;;;18.01;52.56;102783.47;4865034;29;45759;-65
2022/07/08 05:54:04;;;;;;;;;4.00;4.00;;;;;18.06;52.13;102786.00;4838766;29;45347;-65
2022/07/08 05:56:29;;;;;;;;;10.25;3.75;;;;;18.03;52.05;102787.00;4858247;29;45218;-65
2022/07/08 05:58:55;;;;;;;;;5.00;5.00;;;;;18.00;52.17;102784.38;4853993;29;46356;-65
2022/07/08 06:01:20;;;;;;;;;11.00;8.00;;;;;17.94;51.97;102779.16;4851260;29;49211;-64
2022/07/08 06:03:45;;;;;;;;;9.00;7.00;;;;;17.86;52.41;102770.38;4851055;29;45568;-65
2022/07/08 06:06:11;;;;;;;;;9.25;9.25;;;;;17.89;52.11;102781.13;4859582;29;45237;-65
2022/07/08 06:08:36;;;;;;;;;6.50;6.50;;;;;17.87;52.16;102780.28;4853675;29;45518;-65
2022/07/08 06:11:01;;;;;;;;;9.00;5.75;;;;;17.89;52.38;102789.22;4860520;29;45610;-64
2022/07/08 06:13:27;;;;;;;;;5.50;5.00;;;;;17.75;52.43;102778.81;4849445;29;45325;-67
2022/07/08 06:15:53;;;;;;;;;6.25;6.25;;;;;17.76;52.50;102786.88;4844427;29;45819;-67
2022/07/08 06:18:19;;;;;;;;;6.25;4.25;;;;;17.74;52.55;102799.53;4874857;29;45339;-67
2022/07/08 06:20:44;;;;;;;;;6.00;4.25;;;;;17.69;52.43;102793.41;4859356;29;45463;-67
2022/07/08 06:23:09;;;;;;;;;8.50;3.50;;;;;17.68;52.50;102802.41;4846414;29;45352;-67
2022/07/08 06:25:35;;;;;;;;;6.25;4.50;;;;;17.62;52.75;102791.78;4852042;29;45543;-67
2022/07/08 06:28:00;;;;;;;;;6.75;5.00;;;;;17.63;52.77;102795.41;4865515;29;52217;-67
2022/07/08 06:30:26;;;;;;;;;9.00;4.00;;;;;17.62;52.62;102797.19;4853707;29;46554;-67
2022/07/08 06:32:51;;;;;;;;;5.25;5.25;;;;;17.63;52.53;102793.56;4861691;29;45317;-66
2022/07/08 06:35:16;;;;;;;;;8.75;5.50;;;;;17.70;52.93;102800.53;4862292;29;45597;-66
2022/07/08 06:37:42;;;;;;;;;6.00;4.50;;;;;17.76;52.68;102808.47;4856940;29;45559;-67
2022/07/08 06:40:08;;;;;;;;;4.50;3.75;;;;;17.75;52.59;102808.53;4852993;29;46523;-67
2022/07/08 06:42:33;;;;;;;;;6.00;4.25;;;;;17.75;52.07;102805.81;4843474;29;45202;-66
2022/07/08 06:44:58;;;;;;;;;7.00;6.00;;;;;17.70;52.62;102808.66;4874290;29;45322;-66
2022/07/08 06:47:25;;;;;;;;;5.00;4.50;;;;;17.60;52.39;102799.94;4859087;29;45571;-67
2022/07/08 06:49:50;;;;;;;;;5.75;4.75;;;;;17.72;52.45;102809.47;4867331;29;46961;-67
2022/07/08 06:52:16;;;;;;;;;4.75;4.75;;;;;17.80;52.69;102811.09;4858641;29;45397;-67
2022/07/08 06:54:41;;;;;;;;;6.00;4.75;;;;;17.91;52.46;102798.19;4849168;29;45433;-67
2022/07/08 06:57:07;;;;;;;;;3.75;2.00;;;;;17.94;52.08;102798.06;4860121;29;46621;-67
2022/07/08 06:59:37;;;;;;;;;8.25;8.00;;;;;17.96;52.12;102797.09;4857150;29;45801;-67
2022/07/08 07:02:03;;;;;;;;;5.50;4.75;;;;;18.01;52.46;102805.06;4870741;29;45558;-67
2022/07/08 07:04:28;;;;;;;;;4.50;3.75;;;;;18.04;52.18;102810.38;4859096;29;45362;-67
2022/07/08 07:06:54;;;;;;;;;7.00;5.25;;;;;18.05;52.42;102798.63;4867072;29;46734;-68
2022/07/08 07:09:20;;;;;;;;;6.25;4.75;;;;;18.07;52.04;102802.16;4861987;29;45495;-68
2022/07/08 07:11:45;;;;;;;;;4.75;3.75;;;;;18.12;51.81;102807.44;4849487;29;45763;-67
2022/07/08 07:14:10;;;;;;;;;6.00;4.75;;;;;18.13;51.53;102810.09;4854221;29;45453;-68
2022/07/08 07:16:36;;;;;;;;;10.50;7.50;;;;;18.13;52.49;102801.97;4863848;29;45268;-67
2022/07/08 07:19:01;;;;;;;;;6.75;5.75;;;;;18.18;51.49;102809.06;4865105;29;46248;-67
2022/07/08 07:21:27;;;;;;;;;7.00;6.25;;;;;18.14;51.58;102805.56;4860623;29;45447;-67
2022/07/08 07:23:52;;;;;;;;;6.50;4.25;;;;;18.17;52.21;102807.28;4857913;29;45380;-67
2022/07/08 07:26:18;;;;;;;;;7.00;5.25;;;;;18.22;51.97;102803.50;4853169;29;46014;-67
2022/07/08 07:28:43;;;;;;;;;8.00;7.00;;;;;18.28;52.14;102807.84;4856101;29;46590;-67
2022/07/08 07:31:08;;;;;;;;;4.75;4.75;;;;;18.31;52.05;102802.34;4865039;29;45552;-67
2022/07/08 07:33:34;;;;;;;;;5.25;5.00;;;;;18.39;51.53;102812.88;4865494;29;45921;-67
2022/07/08 07:35:59;;;;;;;;;6.25;5.50;;;;;18.39;51.80;102811.06;4865998;29;45355;-67
2022/07/08 07:38:25;;;;;;;;;7.50;6.00;;;;;18.44;52.06;102814.53;4854068;29;46001;-67
2022/07/08 07:40:50;;;;;;;;;6.25;5.75;;;;;18.55;51.72;102813.28;4855488;29;45506;-67
2022/07/08 07:43:15;;;;;;;;;5.25;5.25;;;;;18.61;51.49;102804.94;4867217;29;45388;-67
2022/07/08 07:45:41;;;;;;;;;6.00;4.25;;;;;18.73;51.22;102811.75;4865534;29;45594;-67
2022/07/08 07:48:06;;;;;;;;;13.50;10.75;;;;;18.79;51.29;102814.25;4864845;29;46009;-67
2022/07/08 07:50:31;;;;;;;;;13.00;6.25;;;;;18.74;51.54;102802.72;4865712;29;45279;-66
2022/07/08 07:52:57;;;;;;;;;7.75;5.50;;;;;18.86;51.03;102814.06;4862313;29;45343;-66
2022/07/08 07:55:22;;;;;;;;;8.25;6.25;;;;;18.96;50.47;102822.75;4843665;29;45612;-66
2022/07/08 07:57:48;;;;;;;;;9.00;6.50;;;;;19.04;50.42;102815.25;4864470;29;45329;-68
2022/07/08 08:00:15;;;;;;;;;6.50;6.50;;;;;19.12;50.49;102808.66;4854751;29;45398;-69
2022/07/08 08:02:41;;;;;;;;;8.75;5.75;;;;;19.10;50.33;102788.88;4864738;29;45363;-68
2022/07/08 08:05:09;;;;;;;;;5.25;5.25;;;;;19.31;50.21;102806.16;4863275;29;45521;-67
2022/07/08 08:07:37;;;;;;;;;7.75;6.25;;;;;19.35;50.05;102805.13;4852534;29;46871;-71
2022/07/08 08:10:02;;;;;;;;;9.25;6.50;;;;;19.41;50.00;102804.88;4871896;29;45463;-68
2022/07/08 08:12:28;;;;;;;;;8.50;7.50;;;;;19.41;50.09;102797.66;4854750;29;45540;-69
2022/07/08 08:14:53;;;;;;;;;5.25;5.25;;;;;19.50;49.73;102809.09;4857023;29;45479;-68
2022/07/08 08:17:18;;;;;;;;;5.50;5.25;;;;;19.39;50.08;102794.09;4841243;29;47008;-69
2022/07/08 08:19:44;;;;;;;;;7.00;6.25;;;;;19.53;49.82;102803.53;4842344;29;45372;-68
2022/07/08 08:22:09;;;;;;;;;7.50;7.50;;;;;19.60;49.40;102808.69;4837591;29;45262;-71
2022/07/08 08:24:34;;;;;;;;;6.00;4.25;;;;;19.59;50.40;102798.78;4853589;29;45423;-71
2022/07/08 08:27:00;;;;;;;;;6.75;6.25;;;;;19.67;49.49;102797.63;4853447;29;46393;-69
2022/07/08 08:29:25;;;;;;;;;5.75;5.75;;;;;19.74;49.53;102788.31;4863521;29;45244;-71
2022/07/08 08:31:50;;;;;;;;;9.00;5.75;;;;;19.84;49.13;102807.84;4858837;29;45682;-74
2022/07/08 08:34:15;;;;;;;;;8.00;6.50;;;;;19.80;49.47;102783.56;4834636;29;48659;-74
2022/07/08 08:36:41;;;;;;;;;6.25;6.25;;;;;19.82;49.23;102778.09;4846581;29;47067;-74
2022/07/08 08:39:06;;;;;;;;;5.00;5.00;;;;;19.91;49.01;102784.97;4867465;29;51115;-74
2022/07/08 08:41:33;;;;;;;;;11.00;7.50;;;;;19.94;48.12;102790.28;4850033;29;45473;-74
2022/07/08 08:43:59;;;;;;;;;5.25;4.25;;;;;19.76;48.27;102754.84;4846774;29;45510;-74
2022/07/08 08:46:24;;;;;;;;;5.50;5.25;;;;;19.78;48.58;102750.22;4859577;29;45495;-73
2022/07/08 08:48:56;;;;;;;;;6.25;5.00;;;;;20.06;48.46;102784.34;4855422;29;45502;-74
2022/07/08 08:51:22;;;;;;;;;6.50;6.00;;;;;20.04;47.92;102763.69;4847716;29;45492;-72
2022/07/08 08:53:48;;;;;;;;;7.00;6.50;;;;;20.05;48.04;102757.34;4850631;29;45497;-72
2022/07/08 08:56:16;;;;;;;;;8.50;4.25;;;;;20.19;48.28;102779.31;4864181;29;46074;-73
2022/07/08 08:58:47;;;;;;;;;3.00;3.00;;;;;20.05;48.44;102757.34;4852378;29;45469;-68
2022/07/08 09:01:18;;;;;;;;;5.00;4.25;;;;;19.96;47.83;102748.63;4847359;29;45568;-70
2022/07/08 09:03:44;;;;;;;;;6.00;4.50;;;;;20.03;47.84;102751.06;4862734;29;45445;-70
2022/07/08 09:06:09;;;;;;;;;5.25;5.25;;;;;20.02;47.96;102733.06;4861821;29;47243;-70
2022/07/08 09:08:38;;;;;;;;;6.00;5.50;;;;;20.21;47.51;102754.84;4858089;29;45395;-71
2022/07/08 09:11:05;;;;;;;;;6.25;5.75;;;;;20.10;47.23;102733.63;4855800;29;45417;-70
2022/07/08 09:13:31;;;;;;;;;4.75;4.25;;;;;20.12;46.34;102731.72;4835353;29;45755;-67
2022/07/08 09:15:58;;;;;;;;;5.25;5.25;;;;;20.15;46.54;102723.47;4854970;29;46530;-70
2022/07/08 09:18:31;;;;;;;;;7.00;6.00;;;;;20.35;47.01;102747.03;4836965;29;45369;-70
2022/07/08 09:20:58;;;;;;;;;8.00;5.50;;;;;20.17;46.76;102716.16;4850660;29;45513;-70
2022/07/08 09:23:31;;;;;;;;;8.25;5.50;;;;;20.44;47.45;102756.63;4845880;29;45456;-70
2022/07/08 09:26:02;;;;;;;;;6.50;4.50;;;;;20.52;47.17;102759.91;4843864;29;47368;-70
2022/07/08 09:28:44;;;;;;;;;4.00;4.00;;;;;20.49;46.46;102744.63;4861648;29;45412;-70
2022/07/08 09:31:14;;;;;;;;;10.00;4.00;;;;;20.57;46.54;102757.88;4862976;29;45292;-70
2022/07/08 09:33:41;;;;;;;;;7.75;6.50;;;;;20.46;46.31;102733.88;4862360;29;45392;-70
2022/07/08 09:36:09;;;;;;;;;6.00;6.00;;;;;20.34;46.57;102708.16;4836365;29;48001;-70
2022/07/08 09:38:36;;;;;;;;;6.00;5.00;;;;;20.59;45.87;102745.09;4834835;29;46122;-70
2022/07/08 09:41:06;;;;;;;;;6.00;5.00;;;;;20.49;45.31;102713.91;4859529;29;45642;-70
2022/07/08 09:43:44;;;;;;;;;5.75;5.75;;;;;20.54;45.66;102720.00;4859388;29;45552;-70
2022/07/08 09:46:09;;;;;;;;;5.25;5.00;;;;;20.72;45.80;102734.66;4851158;29;46274;-70
2022/07/08 09:48:35;;;;;;;;;4.25;4.25;;;;;20.60;45.28;102708.00;4846695;29;45286;-71
2022/07/08 09:51:08;;;;;;;;;6.00;5.25;;;;;20.90;45.45;102750.13;4861025;29;45321;-70
2022/07/08 09:53:35;;;;;;;;;5.00;5.00;;;;;20.76;44.59;102719.97;4857808;29;45437;-71
2022/07/08 09:56:01;;;;;;;;;4.00;4.00;;;;;20.85;45.10;102733.16;4860493;29;45471;-70
2022/07/08 09:58:30;;;;;;;;;4.25;4.25;;;;;20.94;44.58;102742.72;4863435;29;45612;-70
2022/07/08 10:00:57;;;;;;;;;5.00;5.00;;;;;21.00;44.22;102745.16;4845593;29;45499;-71
2022/07/08 10:03:24;;;;;;;;;6.25;6.25;;;;;21.04;44.90;102754.94;4856334;29;45644;-71
2022/07/08 10:05:49;;;;;;;;;6.25;5.00;;;;;20.98;43.96;102736.22;4837649;29;48078;-70
2022/07/08 10:08:17;;;;;;;;;3.25;3.25;;;;;21.03;44.13;102736.91;4859992;29;45488;-70
2022/07/08 10:10:45;;;;;;;;;8.00;4.25;;;;;20.97;44.42;102711.84;4840101;29;45759;-70
2022/07/08 10:13:11;;;;;;;;;7.00;5.50;;;;;21.13;44.34;102736.47;4857333;29;45590;-71
2022/07/08 10:15:38;;;;;;;;;6.00;6.00;;;;;21.07;44.18;102713.19;4855227;29;45488;-70
2022/07/08 10:18:32;;;;;;;;;3.75;3.75;;;;;21.28;42.84;102742.09;4848411;29;45356;-70
2022/07/08 10:21:02;;;;;;;;;8.33;6.33;;;;;21.29;43.15;102741.13;4851885;29;45403;-73
2022/07/08 10:23:34;;;;;;;;;6.25;5.25;;;;;21.17;42.78;102717.25;4855336;29;45568;-70
2022/07/08 10:26:02;;;;;;;;;9.50;6.75;;;;;21.26;43.44;102718.66;4859165;29;46378;-70
2022/07/08 10:28:41;;;;;;;;;4.25;4.25;;;;;21.41;43.13;102739.66;4863401;29;45525;-71
2022/07/08 10:31:21;;;;;;;;;6.00;6.00;;;;;21.47;42.64;102741.25;4859150;29;45420;-71
2022/07/08 10:33:47;;;;;;;;;6.50;5.00;;;;;21.19;43.68;102674.59;4855085;29;45897;-70
2022/07/08 10:36:13;;;;;;;;;6.25;5.25;;;;;21.48;43.26;102712.25;4850043;29;46194;-70
2022/07/08 10:42:09;;;;;;;;;3.75;3.00;;;;;21.47;42.88;102697.78;4837265;29;45652;-71
2022/07/08 10:44:44;;;;;;;;;5.00;5.00;;;;;21.72;42.87;102721.06;4864708;29;45662;-71
2022/07/08 10:47:10;;;;;;;;;7.50;4.75;;;;;21.48;42.34;102676.94;4849890;29;47063;-71
2022/07/08 10:49:49;;;;;;;;;4.00;3.75;;;;;21.49;42.26;102676.00;4840991;29;45251;-71
2022/07/08 10:52:16;;;;;;;;;7.00;3.75;;;;;21.60;42.09;102684.47;4852271;29;45532;-72
2022/07/08 10:54:42;;;;;;;;;5.25;5.25;;;;;21.56;41.78;102670.16;4858532;29;45514;-71
2022/07/08 10:57:25;;;;;;;;;4.00;4.00;;;;;21.75;41.77;102694.63;4849951;29;48186;-71
2022/07/08 11:00:08;;;;;;;;;7.00;5.00;;;;;22.02;42.10;102718.69;4865721;29;45426;-71
2022/07/08 11:02:39;;;;;;;;;5.50;4.00;;;;;21.82;41.41;102701.53;4849935;29;45417;-71
2022/07/08 11:05:05;;;;;;;;;6.25;5.25;;;;;21.88;40.91;102697.59;4844283;29;45616;-71
2022/07/08 11:07:30;;;;;;;;;4.00;4.00;;;;;21.86;41.04;102685.06;4840869;29;47207;-71
2022/07/08 11:10:14;;;;;;;;;3.50;3.50;;;;;21.78;41.30;102660.97;4848464;29;45276;-71
2022/07/08 11:12:42;;;;;;;;;3.50;3.50;;;;;22.02;40.38;102689.66;4847082;29;45313;-71
2022/07/08 11:15:11;;;;;;;;;3.75;3.75;;;;;22.04;40.66;102688.72;4847660;29;45482;-71
2022/07/08 11:17:46;;;;;;;;;5.50;4.25;;;;;22.18;40.04;102708.78;4838375;29;45269;-71
2022/07/08 11:20:16;;;;;;;;;5.00;4.00;;;;;22.04;39.97;102673.28;4846924;29;45682;-71
2022/07/08 11:22:43;;;;;;;;;3.50;3.25;;;;;22.26;40.00;102700.25;4836066;29;45523;-71
2022/07/08 11:25:11;;;;;;;;;6.75;4.00;;;;;22.10;40.21;102658.47;4858860;29;45598;-71
2022/07/08 11:27:37;;;;;;;;;2.50;2.00;;;;;22.33;39.71;102684.53;4848182;29;45590;-71